sensor_id;sensor_type;location;lat;lon;timestamp;pressure;altitude;pressure_sealevel;temperature;humidity
36692;BME280;22678;52.052;4.242;2023-04-01T00:01:43;99156.22;;;9.08;100.00
36692;BME280;22678;52.052;4.242;2023-04-01T00:04:08;99161.53;;;9.05;100.00
36692;BME280;22678;52.052;4.242;2023-04-01T00:06:34;99160.63;;;9.06;100.00
36692;BME280;22678;52.052;4.242;2023-04-01T00:09:00;99159.81;;;9.04;100.00
36692;BME280;22678;52.052;4.242;2023-04-01T00:11:25;99165.84;;;9.08;100.00
36692;BME280;22678;52.052;4.242;2023-04-01T00:13:52;99172.91;;;9.06;100.00
36692;BME280;22678;52.052;4.242;2023-04-01T00:16:18;99174.63;;;9.07;100.00
36692;BME280;22678;52.052;4.242;2023-04-01T00:18:43;99178.13;;;9.06;100.00
36692;BME280;22678;52.052;4.242;2023-04-01T00:21:08;99152.28;;;8.92;100.00
36692;BME280;22678;52.052;4.242;2023-04-01T00:23:34;99152.94;;;9.00;100.00
36692;BME280;22678;52.052;4.242;2023-04-01T00:26:01;99169.53;;;9.01;100.00
36692;BME280;22678;52.052;4.242;2023-04-01T00:28:27;99169.63;;;8.98;100.00
36692;BME280;22678;52.052;4.242;2023-04-01T00:30:53;99180.06;;;8.99;100.00
36692;BME280;22678;52.052;4.242;2023-04-01T00:33:18;99181.84;;;8.99;100.00
36692;BME280;22678;52.052;4.242;2023-04-01T00:35:44;99189.69;;;8.99;100.00
36692;BME280;22678;52.052;4.242;2023-04-01T00:38:10;99187.97;;;8.98;100.00
36692;BME280;22678;52.052;4.242;2023-04-01T00:40:41;99194.13;;;8.97;100.00
36692;BME280;22678;52.052;4.242;2023-04-01T00:43:19;99187.16;;;8.96;100.00
36692;BME280;22678;52.052;4.242;2023-04-01T00:45:47;99191.66;;;8.90;100.00
36692;BME280;22678;52.052;4.242;2023-04-01T00:48:17;99183.97;;;8.84;100.00
36692;BME280;22678;52.052;4.242;2023-04-01T00:50:48;99208.16;;;8.96;100.00
36692;BME280;22678;52.052;4.242;2023-04-01T00:53:14;99202.25;;;8.87;100.00
36692;BME280;22678;52.052;4.242;2023-04-01T00:55:43;99210.91;;;8.91;100.00
36692;BME280;22678;52.052;4.242;2023-04-01T00:58:14;99211.78;;;8.90;100.00
36692;BME280;22678;52.052;4.242;2023-04-01T01:00:41;99223.13;;;8.90;100.00
36692;BME280;22678;52.052;4.242;2023-04-01T01:03:07;99213.56;;;8.89;100.00
36692;BME280;22678;52.052;4.242;2023-04-01T01:09:14;99212.78;;;8.86;100.00
36692;BME280;22678;52.052;4.242;2023-04-01T01:11:50;99220.53;;;8.89;100.00
36692;BME280;22678;52.052;4.242;2023-04-01T01:14:32;99225.78;;;8.89;100.00
36692;BME280;22678;52.052;4.242;2023-04-01T01:17:16;99226.81;;;8.83;100.00
36692;BME280;22678;52.052;4.242;2023-04-01T01:25:40;99227.66;;;8.85;100.00
36692;BME280;22678;52.052;4.242;2023-04-01T01:28:33;99238.13;;;8.85;100.00
36692;BME280;22678;52.052;4.242;2023-04-01T01:31:28;99236.31;;;8.87;100.00
36692;BME280;22678;52.052;4.242;2023-04-01T01:34:27;99250.31;;;8.88;100.00
36692;BME280;22678;52.052;4.242;2023-04-01T01:36:58;99239.03;;;8.84;100.00
36692;BME280;22678;52.052;4.242;2023-04-01T01:39:28;99241.66;;;8.84;100.00
36692;BME280;22678;52.052;4.242;2023-04-01T01:41:57;99233.81;;;8.83;100.00
36692;BME280;22678;52.052;4.242;2023-04-01T01:44:25;99252.13;;;8.84;100.00
36692;BME280;22678;52.052;4.242;2023-04-01T01:46:52;99246.81;;;8.87;100.00
36692;BME280;22678;52.052;4.242;2023-04-01T01:49:18;99250.34;;;8.86;100.00
36692;BME280;22678;52.052;4.242;2023-04-01T01:51:44;99231.50;;;8.72;100.00
36692;BME280;22678;52.052;4.242;2023-04-01T01:54:17;99256.47;;;8.85;100.00
36692;BME280;22678;52.052;4.242;2023-04-01T01:56:46;99260.75;;;8.89;100.00
36692;BME280;22678;52.052;4.242;2023-04-01T01:59:14;99262.44;;;8.90;100.00
36692;BME280;22678;52.052;4.242;2023-04-01T02:01:47;99265.94;;;8.91;100.00
36692;BME280;22678;52.052;4.242;2023-04-01T02:04:15;99269.41;;;8.91;100.00
36692;BME280;22678;52.052;4.242;2023-04-01T02:06:52;99269.41;;;8.91;100.00
36692;BME280;22678;52.052;4.242;2023-04-01T02:09:19;99272.09;;;8.90;100.00
36692;BME280;22678;52.052;4.242;2023-04-01T02:12:01;99280.75;;;8.92;100.00
36692;BME280;22678;52.052;4.242;2023-04-01T02:14:38;99290.41;;;8.91;100.00
36692;BME280;22678;52.052;4.242;2023-04-01T02:17:16;99299.16;;;8.90;100.00
36692;BME280;22678;52.052;4.242;2023-04-01T02:20:04;99297.38;;;8.92;100.00
36692;BME280;22678;52.052;4.242;2023-04-01T02:22:33;99278.47;;;8.80;100.00
36692;BME280;22678;52.052;4.242;2023-04-01T02:25:08;99303.59;;;8.88;100.00
36692;BME280;22678;52.052;4.242;2023-04-01T02:27:34;99277.56;;;8.81;100.00
36692;BME280;22678;52.052;4.242;2023-04-01T02:30:00;99311.28;;;8.94;100.00
36692;BME280;22678;52.052;4.242;2023-04-01T02:32:27;99290.66;;;8.82;100.00
36692;BME280;22678;52.052;4.242;2023-04-01T02:34:55;99316.59;;;8.91;100.00
36692;BME280;22678;52.052;4.242;2023-04-01T02:37:21;99314.00;;;8.91;100.00
36692;BME280;22678;52.052;4.242;2023-04-01T02:39:46;99317.50;;;8.90;100.00
36692;BME280;22678;52.052;4.242;2023-04-01T02:42:13;99324.44;;;8.93;100.00
36692;BME280;22678;52.052;4.242;2023-04-01T02:44:38;99324.47;;;8.91;100.00
36692;BME280;22678;52.052;4.242;2023-04-01T02:47:04;99320.13;;;8.90;100.00
36692;BME280;22678;52.052;4.242;2023-04-01T02:49:29;99321.84;;;8.91;100.00
36692;BME280;22678;52.052;4.242;2023-04-01T02:51:54;99316.72;;;8.87;100.00
36692;BME280;22678;52.052;4.242;2023-04-01T02:54:20;99329.63;;;8.94;100.00
36692;BME280;22678;52.052;4.242;2023-04-01T02:56:45;99337.50;;;8.94;100.00
36692;BME280;22678;52.052;4.242;2023-04-01T02:59:11;99342.63;;;8.99;100.00
36692;BME280;22678;52.052;4.242;2023-04-01T03:01:36;99341.81;;;8.97;100.00
36692;BME280;22678;52.052;4.242;2023-04-01T03:04:02;99340.16;;;8.93;100.00
36692;BME280;22678;52.052;4.242;2023-04-01T03:06:27;99353.06;;;9.01;100.00
36692;BME280;22678;52.052;4.242;2023-04-01T03:08:52;99367.03;;;9.03;100.00
36692;BME280;22678;52.052;4.242;2023-04-01T03:11:18;99369.66;;;9.03;100.00
36692;BME280;22678;52.052;4.242;2023-04-01T03:13:43;99374.88;;;9.03;100.00
36692;BME280;22678;52.052;4.242;2023-04-01T03:16:09;99377.59;;;9.00;100.00
36692;BME280;22678;52.052;4.242;2023-04-01T03:18:34;99385.34;;;9.04;100.00
36692;BME280;22678;52.052;4.242;2023-04-01T03:21:13;99379.28;;;9.01;100.00
36692;BME280;22678;52.052;4.242;2023-04-01T03:23:39;99369.03;;;8.91;100.00
36692;BME280;22678;52.052;4.242;2023-04-01T03:26:05;99398.50;;;9.03;100.00
36692;BME280;22678;52.052;4.242;2023-04-01T03:28:30;99396.69;;;9.05;100.00
36692;BME280;22678;52.052;4.242;2023-04-01T03:30:55;99381.19;;;8.96;100.00
36692;BME280;22678;52.052;4.242;2023-04-01T03:33:21;99407.09;;;9.08;100.00
36692;BME280;22678;52.052;4.242;2023-04-01T03:35:46;99407.09;;;9.08;100.00
36692;BME280;22678;52.052;4.242;2023-04-01T03:38:11;99413.22;;;9.08;100.00
36692;BME280;22678;52.052;4.242;2023-04-01T03:40:37;99399.34;;;9.03;100.00
36692;BME280;22678;52.052;4.242;2023-04-01T03:43:03;99421.13;;;9.07;100.00
36692;BME280;22678;52.052;4.242;2023-04-01T03:45:31;99418.50;;;9.07;100.00
36692;BME280;22678;52.052;4.242;2023-04-01T03:47:57;99417.66;;;9.05;100.00
36692;BME280;22678;52.052;4.242;2023-04-01T03:50:22;99436.78;;;9.10;100.00
36692;BME280;22678;52.052;4.242;2023-04-01T03:52:47;99436.84;;;9.07;100.00
36692;BME280;22678;52.052;4.242;2023-04-01T03:55:13;99436.78;;;9.10;100.00
36692;BME280;22678;52.052;4.242;2023-04-01T03:57:38;99434.22;;;9.07;100.00
36692;BME280;22678;52.052;4.242;2023-04-01T04:00:04;99450.69;;;9.12;100.00
36692;BME280;22678;52.052;4.242;2023-04-01T04:02:29;99449.88;;;9.10;100.00
36692;BME280;22678;52.052;4.242;2023-04-01T04:04:55;99447.31;;;9.08;100.00
36692;BME280;22678;52.052;4.242;2023-04-01T04:07:20;99449.97;;;9.07;100.00
36692;BME280;22678;52.052;4.242;2023-04-01T04:09:45;99449.03;;;9.08;100.00
36692;BME280;22678;52.052;4.242;2023-04-01T04:12:11;99465.59;;;9.11;100.00
36692;BME280;22678;52.052;4.242;2023-04-01T04:14:36;99470.94;;;9.07;100.00
36692;BME280;22678;52.052;4.242;2023-04-01T04:17:01;99471.84;;;9.06;100.00
36692;BME280;22678;52.052;4.242;2023-04-01T04:19:32;99480.44;;;9.11;100.00
36692;BME280;22678;52.052;4.242;2023-04-01T04:21:59;99483.25;;;9.03;100.00
36692;BME280;22678;52.052;4.242;2023-04-01T04:24:26;99484.06;;;9.07;100.00
36692;BME280;22678;52.052;4.242;2023-04-01T04:26:52;99495.44;;;9.06;100.00
36692;BME280;22678;52.052;4.242;2023-04-01T04:29:17;99509.41;;;9.06;100.00
36692;BME280;22678;52.052;4.242;2023-04-01T04:31:43;99496.31;;;9.05;100.00
36692;BME280;22678;52.052;4.242;2023-04-01T04:34:08;99491.22;;;8.99;100.00
36692;BME280;22678;52.052;4.242;2023-04-01T04:36:34;99506.88;;;9.02;100.00
36692;BME280;22678;52.052;4.242;2023-04-01T04:38:59;99503.53;;;8.97;100.00
36692;BME280;22678;52.052;4.242;2023-04-01T04:41:27;99511.34;;;8.98;100.00
36692;BME280;22678;52.052;4.242;2023-04-01T04:43:54;99496.78;;;8.86;100.00
36692;BME280;22678;52.052;4.242;2023-04-01T04:46:21;99512.34;;;8.92;100.00
36692;BME280;22678;52.052;4.242;2023-04-01T04:48:47;99523.69;;;8.93;100.00
36692;BME280;22678;52.052;4.242;2023-04-01T04:51:17;99528.00;;;8.96;100.00
36692;BME280;22678;52.052;4.242;2023-04-01T04:53:44;99541.09;;;8.97;100.00
36692;BME280;22678;52.052;4.242;2023-04-01T04:56:10;99540.28;;;8.93;100.00
36692;BME280;22678;52.052;4.242;2023-04-01T04:58:36;99545.47;;;8.97;100.00
36692;BME280;22678;52.052;4.242;2023-04-01T05:01:09;99529.16;;;8.84;100.00
36692;BME280;22678;52.052;4.242;2023-04-01T05:03:36;99542.06;;;8.91;100.00
36692;BME280;22678;52.052;4.242;2023-04-01T05:06:02;99550.84;;;8.90;100.00
36692;BME280;22678;52.052;4.242;2023-04-01T05:08:28;99545.63;;;8.89;100.00
36692;BME280;22678;52.052;4.242;2023-04-01T05:10:53;99567.38;;;8.94;100.00
36692;BME280;22678;52.052;4.242;2023-04-01T05:13:18;99559.63;;;8.89;100.00
36692;BME280;22678;52.052;4.242;2023-04-01T05:15:44;99573.47;;;8.94;100.00
36692;BME280;22678;52.052;4.242;2023-04-01T05:18:09;99583.88;;;8.98;100.00
36692;BME280;22678;52.052;4.242;2023-04-01T05:20:34;99583.03;;;8.97;100.00
36692;BME280;22678;52.052;4.242;2023-04-01T05:23:00;99570.16;;;8.86;100.00
36692;BME280;22678;52.052;4.242;2023-04-01T05:25:26;99596.13;;;8.99;100.00
36692;BME280;22678;52.052;4.242;2023-04-01T05:27:51;99596.13;;;8.99;100.00
36692;BME280;22678;52.052;4.242;2023-04-01T05:30:17;99593.56;;;8.96;100.00
36692;BME280;22678;52.052;4.242;2023-04-01T05:32:42;99602.22;;;8.99;100.00
36692;BME280;22678;52.052;4.242;2023-04-01T05:35:09;99585.03;;;8.86;100.00
36692;BME280;22678;52.052;4.242;2023-04-01T05:37:35;99601.34;;;8.99;100.00
36692;BME280;22678;52.052;4.242;2023-04-01T05:40:00;99608.34;;;9.00;100.00
36692;BME280;22678;52.052;4.242;2023-04-01T05:42:26;99609.28;;;8.96;100.00
36692;BME280;22678;52.052;4.242;2023-04-01T05:44:51;99615.53;;;8.90;100.00
36692;BME280;22678;52.052;4.242;2023-04-01T05:47:17;99623.28;;;8.94;100.00
36692;BME280;22678;52.052;4.242;2023-04-01T05:49:42;99612.91;;;8.90;100.00
36692;BME280;22678;52.052;4.242;2023-04-01T05:52:07;99645.06;;;9.00;100.00
36692;BME280;22678;52.052;4.242;2023-04-01T05:54:33;99644.19;;;8.98;100.00
36692;BME280;22678;52.052;4.242;2023-04-01T05:56:58;99652.94;;;8.98;100.00
36692;BME280;22678;52.052;4.242;2023-04-01T05:59:23;99647.78;;;8.93;100.00
36692;BME280;22678;52.052;4.242;2023-04-01T06:01:49;99660.84;;;8.97;100.00
36692;BME280;22678;52.052;4.242;2023-04-01T06:04:16;99644.41;;;8.88;100.00
36692;BME280;22678;52.052;4.242;2023-04-01T06:06:42;99667.06;;;8.91;100.00
36692;BME280;22678;52.052;4.242;2023-04-01T06:17:24;99692.31;;;8.97;100.00
36692;BME280;22678;52.052;4.242;2023-04-01T06:25:39;99704.56;;;8.94;100.00
36692;BME280;22678;52.052;4.242;2023-04-01T06:31:03;99710.66;;;8.97;100.00
36692;BME280;22678;52.052;4.242;2023-04-01T06:36:39;99701.06;;;8.96;100.00
36692;BME280;22678;52.052;4.242;2023-04-01T06:42:06;99718.53;;;8.97;100.00
36692;BME280;22678;52.052;4.242;2023-04-01T06:50:47;99720.28;;;8.96;100.00
36692;BME280;22678;52.052;4.242;2023-04-01T06:55:52;99733.34;;;8.98;100.00
36692;BME280;22678;52.052;4.242;2023-04-01T06:58:34;99731.56;;;9.01;100.00
36692;BME280;22678;52.052;4.242;2023-04-01T07:01:04;99734.25;;;8.97;100.00
36692;BME280;22678;52.052;4.242;2023-04-01T07:03:49;99735.94;;;8.99;100.00
36692;BME280;22678;52.052;4.242;2023-04-01T07:06:54;99744.56;;;9.06;100.00
36692;BME280;22678;52.052;4.242;2023-04-01T07:09:24;99742.75;;;9.08;100.00
36692;BME280;22678;52.052;4.242;2023-04-01T07:11:53;99743.66;;;9.08;100.00
36692;BME280;22678;52.052;4.242;2023-04-01T07:14:39;99735.91;;;9.01;100.00
36692;BME280;22678;52.052;4.242;2023-04-01T07:17:27;99751.44;;;9.13;100.00
36692;BME280;22678;52.052;4.242;2023-04-01T07:20:25;99757.56;;;9.12;100.00
36692;BME280;22678;52.052;4.242;2023-04-01T07:22:59;99762.75;;;9.15;100.00
36692;BME280;22678;52.052;4.242;2023-04-01T07:25:33;99762.72;;;9.17;100.00
36692;BME280;22678;52.052;4.242;2023-04-01T07:28:05;99767.94;;;9.17;100.00
36692;BME280;22678;52.052;4.242;2023-04-01T07:33:19;99774.84;;;9.22;100.00
36692;BME280;22678;52.052;4.242;2023-04-01T07:35:52;99773.06;;;9.23;100.00
36692;BME280;22678;52.052;4.242;2023-04-01T07:38:32;99784.31;;;9.29;100.00
36692;BME280;22678;52.052;4.242;2023-04-01T07:44:10;99792.19;;;9.29;100.00
36692;BME280;22678;52.052;4.242;2023-04-01T07:47:20;99795.59;;;9.33;100.00
36692;BME280;22678;52.052;4.242;2023-04-01T07:55:35;99805.25;;;9.33;100.00
36692;BME280;22678;52.052;4.242;2023-04-01T07:58:36;99808.75;;;9.32;100.00
36692;BME280;22678;52.052;4.242;2023-04-01T08:06:32;99820.00;;;9.38;100.00
36692;BME280;22678;52.052;4.242;2023-04-01T08:11:44;99841.66;;;9.50;100.00
36692;BME280;22678;52.052;4.242;2023-04-01T08:17:05;99836.28;;;9.56;100.00
36692;BME280;22678;52.052;4.242;2023-04-01T08:19:50;99844.09;;;9.59;100.00
36692;BME280;22678;52.052;4.242;2023-04-01T08:22:30;99850.13;;;9.62;100.00
36692;BME280;22678;52.052;4.242;2023-04-01T08:25:01;99846.69;;;9.60;100.00
36692;BME280;22678;52.052;4.242;2023-04-01T08:27:34;99843.22;;;9.60;100.00
36692;BME280;22678;52.052;4.242;2023-04-01T08:32:37;99851.75;;;9.70;100.00
36692;BME280;22678;52.052;4.242;2023-04-01T08:35:09;99860.41;;;9.75;100.00
36692;BME280;22678;52.052;4.242;2023-04-01T08:37:41;99861.19;;;9.78;100.00
36692;BME280;22678;52.052;4.242;2023-04-01T08:40:37;99859.44;;;9.77;100.00
36692;BME280;22678;52.052;4.242;2023-04-01T08:56:28;99886.19;;;9.96;100.00
36692;BME280;22678;52.052;4.242;2023-04-01T09:18:43;99916.53;;;10.11;100.00
36692;BME280;22678;52.052;4.242;2023-04-01T09:32:15;99930.03;;;10.38;100.00
36692;BME280;22678;52.052;4.242;2023-04-01T09:34:52;99931.69;;;10.41;100.00
36692;BME280;22678;52.052;4.242;2023-04-01T09:46:15;99934.28;;;10.44;100.00
36692;BME280;22678;52.052;4.242;2023-04-01T09:48:57;99942.16;;;10.44;100.00
36692;BME280;22678;52.052;4.242;2023-04-01T09:51:48;99943.13;;;10.40;100.00
36692;BME280;22678;52.052;4.242;2023-04-01T10:05:54;99960.72;;;10.36;100.00
36692;BME280;22678;52.052;4.242;2023-04-01T10:25:26;99988.81;;;10.32;100.00
36692;BME280;22678;52.052;4.242;2023-04-01T10:28:17;99994.13;;;10.29;100.00
36692;BME280;22678;52.052;4.242;2023-04-01T10:34:05;99988.03;;;10.26;100.00
36692;BME280;22678;52.052;4.242;2023-04-01T10:36:43;99999.38;;;10.29;100.00
36692;BME280;22678;52.052;4.242;2023-04-01T10:39:38;99988.03;;;10.26;100.00
36692;BME280;22678;52.052;4.242;2023-04-01T11:15:10;100023.59;;;10.47;100.00
36692;BME280;22678;52.052;4.242;2023-04-01T11:35:20;100050.94;;;10.79;100.00
36692;BME280;22678;52.052;4.242;2023-04-01T11:38:19;100045.59;;;10.82;100.00
36692;BME280;22678;52.052;4.242;2023-04-01T11:40:54;100050.78;;;10.85;100.00
36692;BME280;22678;52.052;4.242;2023-04-01T11:43:39;100054.19;;;10.90;100.00
36692;BME280;22678;52.052;4.242;2023-04-01T11:46:22;100061.88;;;10.99;100.00
36692;BME280;22678;52.052;4.242;2023-04-01T11:55:01;100066.81;;;11.15;100.00
36692;BME280;22678;52.052;4.242;2023-04-01T12:03:46;100083.50;;;11.14;100.00
36692;BME280;22678;52.052;4.242;2023-04-01T12:09:34;100080.16;;;11.05;100.00
36692;BME280;22678;52.052;4.242;2023-04-01T12:14:48;100101.03;;;11.15;100.00
36692;BME280;22678;52.052;4.242;2023-04-01T12:19:58;100102.69;;;11.19;100.00
36692;BME280;22678;52.052;4.242;2023-04-01T12:25:00;100106.97;;;11.23;100.00
36692;BME280;22678;52.052;4.242;2023-04-01T12:30:32;100116.59;;;11.24;100.00
36692;BME280;22678;52.052;4.242;2023-04-01T12:36:00;100120.91;;;11.28;100.00
36692;BME280;22678;52.052;4.242;2023-04-01T12:38:36;100119.94;;;11.32;100.00
36692;BME280;22678;52.052;4.242;2023-04-01T12:41:17;100125.13;;;11.35;100.00
36692;BME280;22678;52.052;4.242;2023-04-01T12:47:12;100138.13;;;11.42;100.00
36692;BME280;22678;52.052;4.242;2023-04-01T12:49:55;100139.03;;;11.40;100.00
36692;BME280;22678;52.052;4.242;2023-04-01T12:55:39;100152.38;;;11.33;100.00
36692;BME280;22678;52.052;4.242;2023-04-01T12:58:43;100151.59;;;11.29;100.00
36692;BME280;22678;52.052;4.242;2023-04-01T13:24:49;100175.75;;;11.47;100.00
36692;BME280;22678;52.052;4.242;2023-04-01T13:32:38;100192.38;;;11.49;100.00
36692;BME280;22678;52.052;4.242;2023-04-01T13:40:49;100199.75;;;11.33;100.00
36692;BME280;22678;52.052;4.242;2023-04-01T13:43:23;100195.47;;;11.27;100.00
36692;BME280;22678;52.052;4.242;2023-04-01T13:54:16;100214.00;;;11.22;100.00
36692;BME280;22678;52.052;4.242;2023-04-01T14:02:24;100220.06;;;11.26;100.00
36692;BME280;22678;52.052;4.242;2023-04-01T14:05:06;100222.72;;;11.25;100.00
36692;BME280;22678;52.052;4.242;2023-04-01T14:08:17;100218.41;;;11.22;100.00
36692;BME280;22678;52.052;4.242;2023-04-01T14:11:22;100227.06;;;11.27;100.00
36692;BME280;22678;52.052;4.242;2023-04-01T14:16:32;100239.34;;;11.28;99.99
36692;BME280;22678;52.052;4.242;2023-04-01T14:19:24;100246.41;;;11.25;100.00
36692;BME280;22678;52.052;4.242;2023-04-01T14:22:12;100255.25;;;11.22;99.84
36692;BME280;22678;52.052;4.242;2023-04-01T14:30:43;100254.50;;;11.15;99.73
36692;BME280;22678;52.052;4.242;2023-04-01T14:33:37;100267.78;;;11.09;99.39
36692;BME280;22678;52.052;4.242;2023-04-01T14:36:43;100270.34;;;11.12;99.50
36692;BME280;22678;52.052;4.242;2023-04-01T14:50:18;100288.56;;;11.23;99.42
36692;BME280;22678;52.052;4.242;2023-04-01T14:55:36;100286.84;;;11.22;99.32
36692;BME280;22678;52.052;4.242;2023-04-01T14:58:13;100289.41;;;11.25;99.03
36692;BME280;22678;52.052;4.242;2023-04-01T15:06:33;100305.19;;;11.27;98.15
36692;BME280;22678;52.052;4.242;2023-04-01T15:12:21;100311.22;;;11.30;98.34
36692;BME280;22678;52.052;4.242;2023-04-01T15:17:39;100328.72;;;11.34;97.87
36692;BME280;22678;52.052;4.242;2023-04-01T15:23:07;100325.31;;;11.29;97.50
36692;BME280;22678;52.052;4.242;2023-04-01T15:25:45;100337.50;;;11.33;97.90
36692;BME280;22678;52.052;4.242;2023-04-01T15:36:32;100328.41;;;11.04;96.40
36692;BME280;22678;52.052;4.242;2023-04-01T15:42:36;100360.69;;;11.13;96.51
36692;BME280;22678;52.052;4.242;2023-04-01T15:45:31;100367.75;;;11.11;96.21
36692;BME280;22678;52.052;4.242;2023-04-01T15:53:56;100376.75;;;10.97;95.86
36692;BME280;22678;52.052;4.242;2023-04-01T15:56:42;100372.44;;;10.93;96.04
36692;BME280;22678;52.052;4.242;2023-04-01T15:59:41;100369.16;;;10.80;95.47
36692;BME280;22678;52.052;4.242;2023-04-01T16:05:00;100393.56;;;10.89;96.18
36692;BME280;22678;52.052;4.242;2023-04-01T16:07:41;100397.09;;;10.87;95.98
36692;BME280;22678;52.052;4.242;2023-04-01T16:16:09;100403.34;;;10.80;96.29
36692;BME280;22678;52.052;4.242;2023-04-01T16:21:49;100402.69;;;10.67;96.50
36692;BME280;22678;52.052;4.242;2023-04-01T16:27:19;100426.34;;;10.67;96.15
36692;BME280;22678;52.052;4.242;2023-04-01T16:29:56;100436.88;;;10.67;95.95
36692;BME280;22678;52.052;4.242;2023-04-01T16:35:25;100445.69;;;10.63;96.48
36692;BME280;22678;52.052;4.242;2023-04-01T16:38:01;100442.25;;;10.58;96.69
36692;BME280;22678;52.052;4.242;2023-04-01T16:43:16;100457.16;;;10.58;96.69
36692;BME280;22678;52.052;4.242;2023-04-01T16:51:16;100458.25;;;10.43;96.82
36692;BME280;22678;52.052;4.242;2023-04-01T16:53:53;100480.94;;;10.50;97.00
36692;BME280;22678;52.052;4.242;2023-04-01T16:56:38;100486.19;;;10.50;97.34
36692;BME280;22678;52.052;4.242;2023-04-01T17:02:10;100501.16;;;10.43;97.21
36692;BME280;22678;52.052;4.242;2023-04-01T17:04:47;100501.25;;;10.37;97.03
36692;BME280;22678;52.052;4.242;2023-04-01T17:13:08;100513.56;;;10.30;97.42
36692;BME280;22678;52.052;4.242;2023-04-01T17:18:29;100539.84;;;10.30;97.81
36692;BME280;22678;52.052;4.242;2023-04-01T17:21:10;100542.47;;;10.30;97.81
36692;BME280;22678;52.052;4.242;2023-04-01T17:26:51;100546.91;;;10.27;97.86
36692;BME280;22678;52.052;4.242;2023-04-01T17:29:59;100560.88;;;10.30;97.80
36692;BME280;22678;52.052;4.242;2023-04-01T17:32:37;100562.69;;;10.27;97.85
36692;BME280;22678;52.052;4.242;2023-04-01T17:35:16;100581.94;;;10.26;98.08
36692;BME280;22678;52.052;4.242;2023-04-01T17:41:00;100589.94;;;10.18;97.45
36692;BME280;22678;52.052;4.242;2023-04-01T17:47:19;100599.63;;;10.11;97.78
36692;BME280;22678;52.052;4.242;2023-04-01T17:52:01;100611.91;;;10.09;98.13
36692;BME280;22678;52.052;4.242;2023-04-01T17:57:23;100632.06;;;10.09;98.27
36692;BME280;22678;52.052;4.242;2023-04-01T18:00:13;100624.25;;;10.04;98.30
36692;BME280;22678;52.052;4.242;2023-04-01T18:03:04;100623.34;;;10.04;98.09
36692;BME280;22678;52.052;4.242;2023-04-01T18:19:40;100680.31;;;10.02;98.43
36692;BME280;22678;52.052;4.242;2023-04-01T18:27:15;100691.69;;;10.00;98.52
36692;BME280;22678;52.052;4.242;2023-04-01T18:29:49;100708.31;;;9.99;98.26
36692;BME280;22678;52.052;4.242;2023-04-01T18:32:36;100696.16;;;9.92;98.42
36692;BME280;22678;52.052;4.242;2023-04-01T18:38:07;100730.28;;;9.92;98.37
36692;BME280;22678;52.052;4.242;2023-04-01T18:40:41;100705.84;;;9.81;98.34
36692;BME280;22678;52.052;4.242;2023-04-01T18:43:34;100741.69;;;9.88;98.25
36692;BME280;22678;52.052;4.242;2023-04-01T18:46:19;100753.94;;;9.88;98.04
36692;BME280;22678;52.052;4.242;2023-04-01T18:49:06;100749.59;;;9.85;98.22
36692;BME280;22678;52.052;4.242;2023-04-01T18:54:29;100761.88;;;9.80;98.14
36692;BME280;22678;52.052;4.242;2023-04-01T18:57:12;100768.03;;;9.74;98.20
36692;BME280;22678;52.052;4.242;2023-04-01T19:02:33;100777.69;;;9.74;98.00
36692;BME280;22678;52.052;4.242;2023-04-01T19:05:26;100777.69;;;9.71;97.70
36692;BME280;22678;52.052;4.242;2023-04-01T19:07:56;100797.84;;;9.65;97.42
36692;BME280;22678;52.052;4.242;2023-04-01T19:10:40;100804.00;;;9.58;97.29
36692;BME280;22678;52.052;4.242;2023-04-01T19:16:25;100805.78;;;9.53;97.05
36692;BME280;22678;52.052;4.242;2023-04-01T19:26:45;100838.19;;;9.47;96.50
36692;BME280;22678;52.052;4.242;2023-04-01T19:32:08;100844.34;;;9.39;96.50
36692;BME280;22678;52.052;4.242;2023-04-01T19:46:14;100872.38;;;9.34;96.20
36692;BME280;22678;52.052;4.242;2023-04-01T20:04:55;100903.84;;;9.21;95.99
36692;BME280;22678;52.052;4.242;2023-04-01T20:07:25;100915.25;;;9.23;96.25
36692;BME280;22678;52.052;4.242;2023-04-01T20:13:13;100925.75;;;9.22;95.96
36692;BME280;22678;52.052;4.242;2023-04-01T20:15:45;100928.38;;;9.20;95.87
36692;BME280;22678;52.052;4.242;2023-04-01T20:26:30;100962.47;;;9.14;95.82
36692;BME280;22678;52.052;4.242;2023-04-01T20:29:22;100958.97;;;9.14;96.04
36692;BME280;22678;52.052;4.242;2023-04-01T20:32:02;100971.22;;;9.10;95.98
36692;BME280;22678;52.052;4.242;2023-04-01T20:34:49;100972.09;;;9.09;96.09
36692;BME280;22678;52.052;4.242;2023-04-01T20:37:42;100989.59;;;9.07;95.99
36692;BME280;22678;52.052;4.242;2023-04-01T20:43:01;101007.94;;;8.99;95.45
36692;BME280;22678;52.052;4.242;2023-04-01T20:50:52;101009.66;;;8.79;95.05
36692;BME280;22678;52.052;4.242;2023-04-01T20:53:27;101019.28;;;8.81;94.96
36692;BME280;22678;52.052;4.242;2023-04-01T20:56:36;101025.38;;;8.80;95.24
36692;BME280;22678;52.052;4.242;2023-04-01T21:10:33;101043.75;;;8.77;94.94
36692;BME280;22678;52.052;4.242;2023-04-01T21:15:49;101040.25;;;8.66;94.61
36692;BME280;22678;52.052;4.242;2023-04-01T21:24:05;101078.66;;;8.57;94.34
36692;BME280;22678;52.052;4.242;2023-04-01T21:26:47;101080.41;;;8.58;94.38
36692;BME280;22678;52.052;4.242;2023-04-01T21:35:08;101101.31;;;8.51;94.14
36692;BME280;22678;52.052;4.242;2023-04-01T21:40:36;101123.09;;;8.42;94.00
36692;BME280;22678;52.052;4.242;2023-04-01T21:46:16;101133.66;;;8.45;94.17
36692;BME280;22678;52.052;4.242;2023-04-01T21:48:58;101140.56;;;8.40;93.90
36692;BME280;22678;52.052;4.242;2023-04-01T21:57:33;101151.88;;;8.36;93.98
36692;BME280;22678;52.052;4.242;2023-04-01T22:00:20;101146.63;;;8.34;94.31
36692;BME280;22678;52.052;4.242;2023-04-01T22:13:10;101185.03;;;8.28;93.97
36692;BME280;22678;52.052;4.242;2023-04-01T22:16:16;101183.28;;;8.30;93.98
36692;BME280;22678;52.052;4.242;2023-04-01T22:21:29;101194.59;;;8.24;93.62